Flight Track Log - Related Links

Times and Time Zones

All times are in EDT time to prevent confusion due to time zone crossing. See the SWA2114 flight status page for this flight to view local times or setup timezone preferences in your user account.

Time Position Orientation Groundspeed Altitude Reporting Facility
EDT Latitude Longitude Course Direction KTS MPH feet Rate Location/Type
Sat 02:09:44 PM 33.4333 -112.0333 270° West 173 199 2,100  Level Phoenix TRACON
Sat 02:10:38 PM 33.4333 -112.1000 270° West 210 242 3,500 1,694 Climbing Phoenix TRACON
Sat 02:11:09 PM 33.4347 -112.1239 274° West 215 247 4,500 2,478 Climbing Albuquerque Center
Sat 02:12:10 PM 33.4575 -112.2006 290° West 267 307 7,300 3,024 Climbing Albuquerque Center
Sat 02:13:12 PM 33.5239 -112.1678 22° Northeast 285 328 10,700 2,780 Climbing Albuquerque Center
Sat 02:14:13 PM 33.5972 -112.1025 37° Northeast 334 384 13,000 2,927 Climbing Albuquerque Center
Sat 02:15:15 PM 33.6969 -112.0222 34° Northeast 358 412 16,700 3,220 Climbing Albuquerque Center
Sat 02:16:16 PM 33.7875 -111.9475 34° Northeast 374 430 19,600 2,878 Climbing Albuquerque Center
Sat 02:17:18 PM 33.8767 -111.8736 35° Northeast 387 445 22,600 2,439 Climbing Albuquerque Center
Sat 02:18:19 PM 33.9656 -111.7992 35° Northeast 390 449 24,600 1,854 Climbing Albuquerque Center
Sat 02:19:21 PM 34.0719 -111.7183 32° Northeast 420 483 26,400 1,854 Climbing Albuquerque Center
Sat 02:20:22 PM 34.1783 -111.6764 18° North 414 476 28,400 1,366 Climbing Albuquerque Center
Sat 02:21:24 PM 34.2897 -111.6439 14° North 413 475 29,200 1,366 Climbing Albuquerque Center
Sat 02:22:25 PM 34.3919 -111.6731 347° North 382 440 31,200 1,659 Climbing Albuquerque Center
Sat 02:23:27 PM 34.4972 -111.7000 348° North 384 442 32,600 1,512 Climbing Albuquerque Center
Sat 02:24:28 PM 34.6033 -111.7303 347° North 389 448 34,300 1,610 Climbing Albuquerque Center
Sat 02:25:30 PM 34.7053 -111.7631 345° North 384 442 35,900 829 Climbing Albuquerque Center
Sat 02:26:31 PM 34.8142 -111.7950 346° North 380 437 36,000 49 Climbing Albuquerque Center
Sat 02:27:33 PM 34.9164 -111.8267 346° North 380 437 36,000  Level Albuquerque Center
Sat 02:28:34 PM 35.0389 -111.8631 346° North 381 438 36,000  Level Albuquerque Center
Sat 02:29:36 PM 35.1394 -111.8942 346° North 378 435 36,000  Level Albuquerque Center
Sat 02:30:37 PM 35.2394 -111.9236 346° North 374 430 36,000  Level Albuquerque Center
Sat 02:31:39 PM 35.3392 -111.9547 346° North 373 429 36,000  Level Albuquerque Center
Sat 02:32:40 PM 35.4389 -111.9853 346° North 373 429 36,000  Level Albuquerque Center
Sat 02:33:42 PM 35.5386 -112.0161 346° North 372 428 36,000  Level Albuquerque Center
Sat 02:34:43 PM 35.6567 -112.0522 346° North 368 423 36,000  Level Albuquerque Center
Sat 02:35:02 PM 35.6767 -112.0578 347° North 368 423 36,000  Level Los Angeles Center
Sat 02:36:04 PM 35.7758 -112.0883 346° North 370 426 36,000  Level Los Angeles Center
Sat 02:37:06 PM 35.8736 -112.1189 346° North 367 422 36,000  Level Los Angeles Center
Sat 02:38:08 PM 35.9911 -112.1589 345° North 366 421 36,000  Level Los Angeles Center
Sat 02:39:10 PM 36.0828 -112.2058 338° Northwest 360 414 36,000  Level Los Angeles Center
Sat 02:40:12 PM 36.1736 -112.2508 338° Northwest 356 410 36,000  Level Los Angeles Center
Sat 02:41:14 PM 36.2836 -112.3042 339° North 360 414 36,000  Level Los Angeles Center
Sat 02:42:16 PM 36.3756 -112.3508 338° Northwest 358 412 36,000  Level Los Angeles Center
Sat 02:43:18 PM 36.4683 -112.3967 338° Northwest 358 412 36,000  Level Los Angeles Center
Sat 02:44:20 PM 36.5611 -112.4425 338° Northwest 359 413 36,000  Level Los Angeles Center
Sat 02:45:23 PM 36.6519 -112.4889 338° Northwest 355 409 36,000  Level Los Angeles Center
Sat 02:46:25 PM 36.7453 -112.5353 338° Northwest 359 413 36,000  Level Los Angeles Center
Sat 02:47:27 PM 36.8567 -112.5908 338° Northwest 359 413 36,000  Level Los Angeles Center
Sat 02:48:29 PM 36.9489 -112.6375 338° Northwest 359 413 36,000  Level Los Angeles Center
Sat 02:49:31 PM 37.0431 -112.6850 338° Northwest 362 417 36,000  Level Los Angeles Center
Sat 02:50:33 PM 37.1350 -112.7333 337° Northwest 360 414 36,000  Level Los Angeles Center
Sat 02:50:51 PM 37.1717 -112.7519 338° Northwest 359 413 36,000  Level Salt Lake Center
Sat 02:51:52 PM 37.2647 -112.7992 338° Northwest 361 415 36,000  Level Salt Lake Center
Sat 02:52:54 PM 37.3594 -112.8469 338° Northwest 363 418 36,000  Level Salt Lake Center
Sat 02:53:55 PM 37.4514 -112.8944 338° Northwest 359 413 36,000  Level Salt Lake Center
Sat 02:54:57 PM 37.5450 -112.9447 337° Northwest 358 412 36,000 532 Level Salt Lake Center
Sat 02:55:59 PM 37.6344 -113.0086 331° Northwest 361 415 37,100 976 Climbing Salt Lake Center
Sat 02:57:00 PM 37.7181 -113.0794 326° Northwest 360 414 38,000 443 Climbing Salt Lake Center
Sat 02:58:01 PM 37.8033 -113.1511 326° Northwest 365 420 38,000  Level Salt Lake Center
Sat 02:59:03 PM 37.8892 -113.2244 326° Northwest 369 425 38,000  Level Salt Lake Center
Sat 03:00:04 PM 37.9761 -113.2969 327° Northwest 372 428 38,000  Level Salt Lake Center
Sat 03:01:06 PM 38.0617 -113.3717 325° Northwest 373 429 38,000  Level Salt Lake Center
Sat 03:02:07 PM 38.1692 -113.4589 327° Northwest 381 438 38,000  Level Salt Lake Center
Sat 03:03:09 PM 38.2564 -113.5333 326° Northwest 378 435 38,000  Level Salt Lake Center
Sat 03:04:10 PM 38.3436 -113.6067 327° Northwest 377 434 38,000  Level Salt Lake Center
Sat 03:05:12 PM 38.4286 -113.6800 326° Northwest 372 428 38,000  Level Salt Lake Center
Sat 03:06:13 PM 38.5144 -113.7556 325° Northwest 375 432 38,000  Level Salt Lake Center
Sat 03:07:15 PM 38.6017 -113.8286 327° Northwest 376 433 38,000  Level Salt Lake Center
Sat 03:08:16 PM 38.6881 -113.9039 326° Northwest 376 433 38,000  Level Salt Lake Center
Sat 03:09:17 PM 38.7742 -113.9789 326° Northwest 376 433 38,000  Level Salt Lake Center
Sat 03:10:19 PM 38.8611 -114.0544 326° Northwest 377 434 38,000  Level Salt Lake Center
Sat 03:11:20 PM 38.9658 -114.1458 326° Northwest 380 437 38,000  Level Salt Lake Center
Sat 03:12:22 PM 39.0514 -114.2225 325° Northwest 378 435 38,000  Level Salt Lake Center
Sat 03:13:23 PM 39.1364 -114.2975 326° Northwest 374 430 38,000  Level Salt Lake Center
Sat 03:14:24 PM 39.2183 -114.3717 325° Northwest 370 426 38,000  Level Salt Lake Center
Sat 03:15:26 PM 39.3114 -114.4578 324° Northwest 369 425 38,000  Level Salt Lake Center
Sat 03:16:27 PM 39.3936 -114.5300 326° Northwest 371 427 38,000  Level Salt Lake Center
Sat 03:17:29 PM 39.4769 -114.5983 328° Northwest 372 428 38,000  Level Salt Lake Center
Sat 03:18:30 PM 39.5714 -114.6831 325° Northwest 369 425 38,000  Level Salt Lake Center
Sat 03:19:32 PM 39.6511 -114.7572 324° Northwest 369 425 38,000  Level Salt Lake Center
Sat 03:20:33 PM 39.7472 -114.8414 326° Northwest 372 428 38,000  Level Salt Lake Center
Sat 03:21:34 PM 39.8289 -114.9147 325° Northwest 372 428 38,000  Level Salt Lake Center
Sat 03:22:36 PM 39.9094 -114.9894 325° Northwest 373 429 38,000  Level Salt Lake Center
Sat 03:23:37 PM 40.0044 -115.0772 325° Northwest 374 430 38,000  Level Salt Lake Center
Sat 03:24:39 PM 40.0894 -115.1517 326° Northwest 380 437 38,000  Level Salt Lake Center
Sat 03:25:40 PM 40.1842 -115.2392 325° Northwest 376 433 38,000  Level Salt Lake Center
Sat 03:26:42 PM 40.2642 -115.3133 325° Northwest 371 427 38,000  Level Salt Lake Center
Sat 03:27:43 PM 40.3453 -115.3858 326° Northwest 368 423 38,000  Level Salt Lake Center
Sat 03:28:44 PM 40.4367 -115.4706 325° Northwest 364 419 38,000  Level Salt Lake Center
Sat 03:29:46 PM 40.5108 -115.5431 323° Northwest 354 407 38,000  Level Salt Lake Center
Sat 03:30:47 PM 40.6017 -115.6267 325° Northwest 356 410 38,000  Level Salt Lake Center
Sat 03:31:49 PM 40.6783 -115.6983 325° Northwest 355 409 38,000  Level Salt Lake Center
Sat 03:32:50 PM 40.7544 -115.7686 325° Northwest 351 404 38,000  Level Salt Lake Center
Sat 03:33:51 PM 40.8444 -115.8525 325° Northwest 353 406 38,000  Level Salt Lake Center
Sat 03:34:53 PM 40.9214 -115.9244 325° Northwest 355 409 38,000  Level Salt Lake Center
Sat 03:35:54 PM 41.0103 -116.0083 325° Northwest 353 406 38,000  Level Salt Lake Center
Sat 03:36:55 PM 41.0881 -116.0817 325° Northwest 355 409 38,000  Level Salt Lake Center
Sat 03:37:57 PM 41.1647 -116.1528 325° Northwest 354 407 38,000  Level Salt Lake Center
Sat 03:38:58 PM 41.2547 -116.2397 324° Northwest 357 411 38,000  Level Salt Lake Center
Sat 03:39:59 PM 41.3328 -116.3167 324° Northwest 363 418 38,000  Level Salt Lake Center
Sat 03:41:01 PM 41.4233 -116.4028 325° Northwest 361 415 38,000  Level Salt Lake Center
Sat 03:42:02 PM 41.5022 -116.4789 324° Northwest 364 419 38,000  Level Salt Lake Center
Sat 03:43:03 PM 41.5850 -116.5464 329° Northwest 366 421 38,000  Level Salt Lake Center
Sat 03:44:04 PM 41.6869 -116.6189 332° Northwest 371 427 38,000  Level Salt Lake Center
Sat 03:45:06 PM 41.7747 -116.6792 333° Northwest 372 428 38,000  Level Salt Lake Center
Sat 03:46:07 PM 41.8772 -116.7536 332° Northwest 374 430 38,000  Level Salt Lake Center
Sat 03:47:08 PM 41.9650 -116.8150 333° Northwest 373 429 38,000  Level Salt Lake Center
Sat 03:48:10 PM 42.0525 -116.8783 332° Northwest 372 428 38,000  Level Salt Lake Center
Sat 03:49:11 PM 42.1536 -116.9517 332° Northwest 370 426 38,000  Level Salt Lake Center
Sat 03:50:12 PM 42.2400 -117.0139 332° Northwest 368 423 38,000  Level Salt Lake Center
Sat 03:51:14 PM 42.3317 -117.0808 332° Northwest 368 423 38,000  Level Salt Lake Center
Sat 03:52:15 PM 42.4322 -117.1553 331° Northwest 368 423 38,000  Level Salt Lake Center
Sat 03:53:16 PM 42.5172 -117.2169 332° Northwest 363 418 38,000  Level Salt Lake Center
Sat 03:54:18 PM 42.6022 -117.2811 331° Northwest 363 418 38,000  Level Salt Lake Center
Sat 03:55:19 PM 42.7008 -117.3533 332° Northwest 360 414 38,000  Level Salt Lake Center
Sat 03:56:20 PM 42.7842 -117.4161 331° Northwest 357 411 38,000  Level Salt Lake Center
Sat 03:57:21 PM 42.8822 -117.4886 332° Northwest 359 413 38,000  Level Salt Lake Center
Sat 03:58:23 PM 42.9667 -117.5514 331° Northwest 361 415 38,000  Level Salt Lake Center
Sat 03:59:24 PM 43.0497 -117.6142 331° Northwest 358 412 38,000  Level Salt Lake Center
Sat 04:00:25 PM 43.1475 -117.6867 332° Northwest 357 411 38,000  Level Salt Lake Center
Sat 04:01:27 PM 43.2325 -117.7514 331° Northwest 363 418 38,000  Level Salt Lake Center
Sat 04:02:28 PM 43.3167 -117.8142 332° Northwest 359 413 38,000  Level Salt Lake Center
Sat 04:03:29 PM 43.4161 -117.8906 331° Northwest 365 420 38,000  Level Salt Lake Center
Sat 04:04:30 PM 43.5011 -117.9547 331° Northwest 364 419 38,000  Level Salt Lake Center
Sat 04:05:32 PM 43.5994 -118.0308 331° Northwest 362 417 38,000  Level Salt Lake Center
Sat 04:06:33 PM 43.6847 -118.0956 331° Northwest 364 419 38,000  Level Salt Lake Center
Sat 04:07:34 PM 43.7706 -118.1628 331° Northwest 367 422 38,000  Level Salt Lake Center
Sat 04:08:35 PM 43.8717 -118.2400 331° Northwest 370 426 38,000  Level Salt Lake Center
Sat 04:09:37 PM 43.9572 -118.3058 331° Northwest 367 422 38,000  Level Salt Lake Center
Sat 04:10:38 PM 44.0525 -118.3794 331° Northwest 368 423 38,000  Level Salt Lake Center
Sat 04:11:39 PM 44.1406 -118.4481 331° Northwest 365 420 38,000  Level Salt Lake Center
Sat 04:12:09 PM 44.1747 -118.4772 329° Northwest 365 420 38,000  Level Seattle Center
Sat 04:13:10 PM 44.2628 -118.5461 331° Northwest 364 419 38,000  Level Seattle Center
Sat 04:14:10 PM 44.3525 -118.6153 331° Northwest 366 421 38,000  Level Seattle Center
Sat 04:15:11 PM 44.4417 -118.6842 331° Northwest 370 426 38,000  Level Seattle Center
Sat 04:16:12 PM 44.5475 -118.7692 330° Northwest 367 422 38,000  Level Seattle Center
Sat 04:17:13 PM 44.6353 -118.8389 331° Northwest 365 420 38,000  Level Seattle Center
Sat 04:18:14 PM 44.7236 -118.9111 330° Northwest 367 422 38,000  Level Seattle Center
Sat 04:19:14 PM 44.8122 -118.9808 331° Northwest 367 422 38,000  Level Seattle Center
Sat 04:20:15 PM 44.9008 -119.0514 331° Northwest 367 422 38,000  Level Seattle Center
Sat 04:21:16 PM 44.9883 -119.1225 330° Northwest 366 421 38,000  Level Seattle Center
Sat 04:22:17 PM 45.0747 -119.1931 330° Northwest 362 417 38,000  Level Seattle Center
Sat 04:23:17 PM 45.1619 -119.2644 330° Northwest 365 420 38,000  Level Seattle Center
Sat 04:24:18 PM 45.2472 -119.3333 330° Northwest 359 413 38,000  Level Seattle Center
Sat 04:25:19 PM 45.3328 -119.4050 330° Northwest 359 413 38,000  Level Seattle Center
Sat 04:26:20 PM 45.4175 -119.4747 330° Northwest 356 410 38,000  Level Seattle Center
Sat 04:27:21 PM 45.5181 -119.5564 330° Northwest 350 403 38,000  Level Seattle Center
Sat 04:28:21 PM 45.6019 -119.6250 330° Northwest 350 403 38,000  Level Seattle Center
Sat 04:29:22 PM 45.6875 -119.6950 330° Northwest 355 409 38,000  Level Seattle Center
Sat 04:30:23 PM 45.7719 -119.7664 329° Northwest 354 407 38,000  Level Seattle Center
Sat 04:31:24 PM 45.8594 -119.8378 330° Northwest 361 415 38,000  Level Seattle Center
Sat 04:32:24 PM 45.9464 -119.9131 329° Northwest 366 421 38,000  Level Seattle Center
Sat 04:33:25 PM 46.0342 -119.9872 330° Northwest 367 422 38,000  Level Seattle Center
Sat 04:34:26 PM 46.1197 -120.0600 329° Northwest 364 419 38,000  Level Seattle Center
Sat 04:35:27 PM 46.2075 -120.1339 330° Northwest 359 413 38,000  Level Seattle Center
Sat 04:36:27 PM 46.2936 -120.2150 327° Northwest 367 422 38,000  Level Seattle Center
Sat 04:37:28 PM 46.3800 -120.2861 330° Northwest 361 415 38,000  Level Seattle Center
Sat 04:38:29 PM 46.4644 -120.3589 329° Northwest 357 411 38,000  Level Seattle Center
Sat 04:39:30 PM 46.5494 -120.4344 329° Northwest 358 412 38,000  Level Seattle Center
Sat 04:40:31 PM 46.6128 -120.5453 310° West 359 413 38,000 -689 Level Seattle Center
Sat 04:41:32 PM 46.6800 -120.6842 305° West 353 406 36,600 -2,083 Descending Seattle Center
Sat 04:42:32 PM 46.7350 -120.7994 305° West 349 402 33,800 -2,678 Descending Seattle Center
Sat 04:43:33 PM 46.7933 -120.9161 306° West 356 410 31,200 -2,459 Descending Seattle Center
Sat 04:44:34 PM 46.8506 -121.0397 304° West 365 420 28,800 -2,311 Descending Seattle Center
Sat 04:45:35 PM 46.9069 -121.1578 305° West 356 410 26,500 -2,213 Descending Seattle Center
Sat 04:46:36 PM 46.9592 -121.2750 303° West 346 398 24,300 -2,115 Descending Seattle Center
Sat 04:47:37 PM 47.0117 -121.3842 305° West 334 384 22,200 -2,308 Descending Seattle Center
Sat 04:47:54 PM 47.0331 -121.4294 305° West 328 377 21,300 -2,100 Descending Seattle Center
Sat 04:48:37 PM 47.0631 -121.4939 304° West 328 377 20,100 -1,442 Descending Seattle Center
Sat 04:49:38 PM 47.1111 -121.5975 304° West 317 365 18,800 -1,426 Descending Seattle Center
Sat 04:50:39 PM 47.1567 -121.6981 304° West 302 348 17,200 -1,820 Descending Seattle Center
Sat 04:51:40 PM 47.2025 -121.7978 304° West 301 346 15,100 -1,308 Descending Seattle Center
Sat 04:52:52 PM 47.2625 -121.9314 304° West 289 333 14,300 -1,240 Descending Seattle Center
Sat 04:53:41 PM 47.3003 -122.0111 305° West 290 334 12,600 -1,964 Descending Seattle Center
Sat 04:54:42 PM 47.3431 -122.1056 304° West 282 325 10,700 -1,279 Descending Seattle Center
Sat 04:55:43 PM 47.3908 -122.1847 312° West 272 313 10,000 -885 Descending Seattle Center
Sat 04:56:44 PM 47.4636 -122.1800 North 267 307 8,900 -1,525 Descending Seattle Center
Sat 04:57:45 PM 47.5431 -122.1761 North 260 299 6,900 -1,736 Descending Seattle Center
Sat 04:58:45 PM 47.6144 -122.1764 360° North 258 297 5,400 -1,289 Descending Seattle Center
Sat 04:59:46 PM 47.6739 -122.2042 343° North 242 278 4,300 -1,082 Descending Seattle Center
Sat 05:00:47 PM 47.6739 -122.2931 270° West 219 252 3,200 -541 Descending Seattle Center
Sat 05:01:48 PM 47.6261 -122.3181 199° South 195 224 3,200  Level Seattle Center
Sat 05:02:06 PM 47.6106 -122.3186 181° South 184 212 3,200 -590 Level Seattle Center
Sat 05:02:49 PM 47.5719 -122.3169 178° South 184 212 2,600 -885 Descending Seattle Center
Sat 05:03:07 PM 47.5572 -122.3183 184° South 178 205 2,300 -900 Descending Seattle Center
Sat 05:03:49 PM 47.5269 -122.3175 179° South 169 194 1,700 -757 Descending Seattle Center
Sat 05:04:50 PM 47.4908 -122.3175 180° South 132 152 1,000 -698 Descending Seattle Center
Sat 05:05:15 PM 47.4775 -122.3197 186° South 120 138 700 -590 Descending Seattle Center
Sat 05:05:51 PM 47.4575 -122.3186 178° South 126 145 400 -500 Descending Seattle Center
Sat 05:07:00 PM 47.4499 -122.3118 306° West  Level Estimated

Login

Don't have an account? Register now (free) for customized features, flight alerts, and more!